createdAt,value
2018-07-05T00:01:35.395Z,19.50
2018-07-05T00:04:15.725Z,19.50
2018-07-05T00:06:55.974Z,19.40
2018-07-05T00:09:36.301Z,19.40
2018-07-05T00:12:16.631Z,19.30
2018-07-05T00:14:57.090Z,19.20
2018-07-05T00:17:37.519Z,19.10
2018-07-05T00:20:17.771Z,19.10
2018-07-05T00:25:32.580Z,19.00
2018-07-05T00:28:12.937Z,18.90
2018-07-05T00:30:53.410Z,18.80
2018-07-05T00:33:33.873Z,18.80
2018-07-05T00:36:14.711Z,18.80
2018-07-05T00:38:55.038Z,18.80
2018-07-05T00:41:35.361Z,18.70
2018-07-05T00:44:15.770Z,18.60
2018-07-05T00:46:56.316Z,18.60
2018-07-05T00:49:36.747Z,18.50
2018-07-05T00:52:17.142Z,18.50
2018-07-05T00:54:57.401Z,18.50
2018-07-05T00:57:37.765Z,18.40
2018-07-05T01:00:18.130Z,18.40
2018-07-05T01:02:58.465Z,18.40
2018-07-05T01:05:38.658Z,18.40
2018-07-05T01:08:18.987Z,18.30
2018-07-05T01:10:59.341Z,18.30
2018-07-05T01:13:39.680Z,18.20
2018-07-05T01:16:19.961Z,18.20
2018-07-05T01:19:00.290Z,18.20
2018-07-05T01:21:40.613Z,18.10
2018-07-05T01:24:20.825Z,18.10
2018-07-05T01:27:01.233Z,18.00
2018-07-05T01:29:41.623Z,18.00
2018-07-05T01:32:22.084Z,18.00
2018-07-05T01:35:02.441Z,18.00
2018-07-05T01:37:43.091Z,17.90
2018-07-05T01:40:23.550Z,17.90
2018-07-05T01:43:03.937Z,17.90
2018-07-05T01:45:44.281Z,17.90
2018-07-05T01:48:24.629Z,17.80
2018-07-05T01:51:04.905Z,17.80
2018-07-05T01:53:46.301Z,17.80
2018-07-05T01:56:26.822Z,17.80
2018-07-05T01:59:07.201Z,17.80
2018-07-05T02:01:47.694Z,17.70
2018-07-05T02:04:28.131Z,17.70
2018-07-05T02:09:54.309Z,17.70
2018-07-05T02:12:35.049Z,17.70
2018-07-05T02:15:15.501Z,17.70
2018-07-05T02:17:56.372Z,17.80
2018-07-05T02:20:36.834Z,17.70
2018-07-05T02:23:17.002Z,17.80
2018-07-05T02:25:57.350Z,17.80
2018-07-05T02:28:37.967Z,17.80
2018-07-05T02:31:18.237Z,17.80
2018-07-05T02:33:59.178Z,17.80
2018-07-05T02:36:39.658Z,17.80
2018-07-05T02:39:25.471Z,17.80
2018-07-05T02:42:05.742Z,17.80
2018-07-05T02:44:45.942Z,17.80
2018-07-05T02:47:26.373Z,17.80
2018-07-05T02:50:07.040Z,17.70
2018-07-05T02:52:47.502Z,17.80
2018-07-05T02:55:27.954Z,17.80
2018-07-05T02:58:08.522Z,17.80
2018-07-05T03:00:49.109Z,17.70
2018-07-05T03:03:29.410Z,17.70
2018-07-05T03:06:09.766Z,17.70
2018-07-05T03:08:49.978Z,17.60
2018-07-05T03:11:30.709Z,17.60
2018-07-05T03:14:11.135Z,17.60
2018-07-05T03:16:51.415Z,17.60
2018-07-05T03:19:31.869Z,17.70
2018-07-05T03:22:12.331Z,17.60
2018-07-05T03:24:52.711Z,17.60
2018-07-05T03:27:33.105Z,17.60
2018-07-05T03:30:13.717Z,17.60
2018-07-05T03:32:54.275Z,17.60
2018-07-05T03:35:34.643Z,17.50
2018-07-05T03:38:15.017Z,17.50
2018-07-05T03:40:55.730Z,17.40
2018-07-05T03:43:36.382Z,17.40
2018-07-05T03:46:16.851Z,17.40
2018-07-05T03:48:57.006Z,17.40
2018-07-05T03:51:37.414Z,17.30
2018-07-05T03:54:17.622Z,17.30
2018-07-05T03:56:57.917Z,17.30
2018-07-05T03:59:38.400Z,17.40
2018-07-05T04:02:18.890Z,17.40
2018-07-05T04:04:59.295Z,17.40
2018-07-05T04:07:39.633Z,17.50
2018-07-05T04:10:19.933Z,17.50
2018-07-05T04:13:01.276Z,17.60
2018-07-05T04:18:15.950Z,17.60
2018-07-05T04:20:56.329Z,17.60
2018-07-05T04:23:36.886Z,17.70
2018-07-05T04:26:17.348Z,17.80
2018-07-05T04:28:57.701Z,17.80
2018-07-05T04:31:38.105Z,17.90
2018-07-05T04:34:18.966Z,17.90
2018-07-05T04:36:59.414Z,17.90
2018-07-05T04:39:39.810Z,18.00
2018-07-05T04:42:20.647Z,18.00
2018-07-05T04:45:01.195Z,18.10
2018-07-05T04:47:41.609Z,18.10
2018-07-05T04:50:22.006Z,18.20
2018-07-05T04:53:02.366Z,18.40
2018-07-05T04:55:42.829Z,18.50
2018-07-05T04:58:23.297Z,18.50
2018-07-05T05:01:04.009Z,18.50
2018-07-05T05:03:44.625Z,18.50
2018-07-05T05:06:25.074Z,18.50
2018-07-05T05:09:05.740Z,18.50
2018-07-05T05:11:46.053Z,18.50
2018-07-05T05:14:26.430Z,18.40
2018-07-05T05:17:06.875Z,18.40
2018-07-05T05:19:47.260Z,18.40
2018-07-05T05:22:27.618Z,18.50
2018-07-05T05:25:07.883Z,18.50
2018-07-05T05:27:48.329Z,18.50
2018-07-05T05:30:29.682Z,18.60
2018-07-05T05:33:09.977Z,18.70
2018-07-05T05:35:50.608Z,18.80
2018-07-05T05:38:30.838Z,18.80
2018-07-05T05:41:11.161Z,19.00
2018-07-05T05:43:51.509Z,19.30
2018-07-05T05:46:32.178Z,19.70
2018-07-05T05:49:12.706Z,19.90
2018-07-05T05:51:53.193Z,20.30
2018-07-05T05:54:33.714Z,20.50
2018-07-05T05:57:14.051Z,20.60
2018-07-05T05:59:54.576Z,20.70
2018-07-05T06:02:35.177Z,20.90
2018-07-05T06:05:15.729Z,21.10
2018-07-05T06:07:56.145Z,21.40
2018-07-05T06:10:36.745Z,21.60
2018-07-05T06:13:18.157Z,21.70
2018-07-05T06:15:58.534Z,21.60
2018-07-05T06:18:39.483Z,21.40
2018-07-05T06:21:19.933Z,21.20
2018-07-05T06:24:00.157Z,21.10
2018-07-05T06:26:40.446Z,21.00
2018-07-05T06:29:20.908Z,21.00
2018-07-05T06:32:01.546Z,20.90
2018-07-05T06:34:42.145Z,21.10
2018-07-05T06:37:22.493Z,21.20
2018-07-05T06:40:02.947Z,21.20
2018-07-05T06:42:43.288Z,21.20
2018-07-05T06:45:23.726Z,21.20
2018-07-05T06:48:04.110Z,21.10
2018-07-05T06:50:44.574Z,21.10
2018-07-05T06:53:25.018Z,21.20
2018-07-05T06:56:05.270Z,21.30
2018-07-05T06:58:45.924Z,21.50
2018-07-05T07:04:00.704Z,21.60
2018-07-05T07:06:42.171Z,21.70
2018-07-05T07:11:57.220Z,22.00
2018-07-05T07:14:37.518Z,22.00
2018-07-05T07:17:18.097Z,22.10
2018-07-05T07:19:58.533Z,22.20
2018-07-05T07:22:38.814Z,22.30
2018-07-05T07:25:19.008Z,22.40
2018-07-05T07:27:59.353Z,22.60
2018-07-05T07:30:39.702Z,22.80
2018-07-05T07:33:20.154Z,23.00
2018-07-05T07:36:00.634Z,23.00
2018-07-05T07:38:41.183Z,23.10
2018-07-05T07:41:21.505Z,23.20
2018-07-05T07:46:17.683Z,23.30
2018-07-05T07:48:45.626Z,23.40
2018-07-05T07:51:14.491Z,23.70
2018-07-05T07:53:42.452Z,23.90
2018-07-05T07:56:10.412Z,24.30
2018-07-05T07:58:38.609Z,24.40
2018-07-05T08:01:06.557Z,24.50
2018-07-05T08:03:34.518Z,24.80
2018-07-05T08:06:02.506Z,25.20
2018-07-05T08:08:30.490Z,25.60
2018-07-05T08:10:58.455Z,25.80
2018-07-05T08:13:26.472Z,25.90
2018-07-05T08:15:55.462Z,25.90
2018-07-05T08:18:23.628Z,25.80
2018-07-05T08:20:51.580Z,25.90
2018-07-05T08:23:19.533Z,25.70
2018-07-05T08:25:47.508Z,25.80
2018-07-05T08:28:15.472Z,26.10
2018-07-05T08:30:43.418Z,26.10
2018-07-05T08:33:11.394Z,26.30
2018-07-05T08:35:39.376Z,26.50
2018-07-05T08:38:07.379Z,26.80
2018-07-05T08:40:35.305Z,26.90
2018-07-05T08:43:03.260Z,27.20
2018-07-05T08:45:31.222Z,27.00
2018-07-05T08:47:59.243Z,27.00
2018-07-05T08:50:27.174Z,26.80
2018-07-05T08:52:55.129Z,27.00
2018-07-05T08:55:23.100Z,27.30
2018-07-05T08:57:51.073Z,27.70
2018-07-05T09:00:19.039Z,27.90
2018-07-05T09:02:47.022Z,27.90
2018-07-05T09:05:15.007Z,28.20
2018-07-05T09:07:43.062Z,28.40
2018-07-05T09:10:11.025Z,28.60
2018-07-05T09:12:38.933Z,28.80
2018-07-05T09:15:06.865Z,29.00
2018-07-05T09:17:34.900Z,29.20
2018-07-05T09:20:02.807Z,29.40
2018-07-05T09:22:30.749Z,29.50
2018-07-05T09:24:58.686Z,29.40
2018-07-05T09:27:26.624Z,29.60
2018-07-05T09:29:54.580Z,29.80
2018-07-05T09:32:22.515Z,30.10
2018-07-05T09:34:50.680Z,29.80
2018-07-05T09:37:18.611Z,29.80
2018-07-05T09:39:46.558Z,29.90
2018-07-05T09:42:14.597Z,29.80
2018-07-05T09:44:42.614Z,30.00
2018-07-05T09:47:10.696Z,30.10
2018-07-05T09:49:38.656Z,30.30
2018-07-05T09:52:06.569Z,30.40
2018-07-05T09:54:34.507Z,30.70
2018-07-05T09:57:02.439Z,30.80
2018-07-05T09:59:30.560Z,30.80
2018-07-05T10:04:27.146Z,31.10
2018-07-05T10:06:55.064Z,31.20
2018-07-05T10:09:23.012Z,31.10
2018-07-05T10:11:50.976Z,31.20
2018-07-05T10:14:18.919Z,31.20
2018-07-05T10:16:46.847Z,31.30
2018-07-05T10:19:14.825Z,31.10
2018-07-05T10:21:42.857Z,31.20
2018-07-05T10:24:10.830Z,31.40
2018-07-05T10:26:38.824Z,31.40
2018-07-05T10:29:18.986Z,31.50
2018-07-05T10:31:59.352Z,31.50
2018-07-05T10:34:27.279Z,31.50
2018-07-05T10:39:23.483Z,31.10
2018-07-05T10:42:03.913Z,31.00
2018-07-05T10:44:44.317Z,31.10
2018-07-05T10:47:24.609Z,31.20
2018-07-05T10:50:04.978Z,31.20
2018-07-05T10:52:45.291Z,31.40
2018-07-05T10:55:25.841Z,31.00
2018-07-05T10:58:06.403Z,31.20
2018-07-05T11:00:46.894Z,31.50
2018-07-05T11:03:27.380Z,31.40
2018-07-05T11:06:07.757Z,31.50
2018-07-05T11:08:49.114Z,31.20
2018-07-05T11:11:29.450Z,31.50
2018-07-05T11:14:09.766Z,31.30
2018-07-05T11:16:50.166Z,31.40
2018-07-05T11:19:30.451Z,31.40
2018-07-05T11:22:10.965Z,31.50
2018-07-05T11:24:51.245Z,31.50
2018-07-05T11:27:31.606Z,31.60
2018-07-05T11:30:12.009Z,31.50
2018-07-05T11:32:52.227Z,31.30
2018-07-05T11:35:32.713Z,31.40
2018-07-05T11:38:13.086Z,31.60
2018-07-05T11:40:53.473Z,31.70
2018-07-05T11:43:33.890Z,31.60
2018-07-05T11:46:14.660Z,31.80
2018-07-05T11:48:55.233Z,31.90
2018-07-05T11:51:36.249Z,32.20
2018-07-05T11:54:16.710Z,31.80
2018-07-05T11:56:56.995Z,31.50
2018-07-05T11:59:37.301Z,31.40
2018-07-05T12:02:17.826Z,31.50
2018-07-05T12:04:58.346Z,31.70
2018-07-05T12:07:38.631Z,31.50
2018-07-05T12:10:18.858Z,31.70
2018-07-05T12:12:59.312Z,31.80
2018-07-05T12:15:39.611Z,31.80
2018-07-05T12:18:20.037Z,32.10
2018-07-05T12:21:00.272Z,32.10
2018-07-05T12:23:40.654Z,32.30
2018-07-05T12:26:21.083Z,32.40
2018-07-05T12:29:01.495Z,32.40
2018-07-05T12:31:41.834Z,32.50
2018-07-05T12:34:22.108Z,32.50
2018-07-05T12:37:02.565Z,32.40
2018-07-05T12:39:43.107Z,32.40
2018-07-05T12:42:23.699Z,32.50
2018-07-05T12:45:04.294Z,32.20
2018-07-05T12:47:44.825Z,32.00
2018-07-05T12:50:25.184Z,31.90
2018-07-05T12:53:05.645Z,31.80
2018-07-05T12:55:47.453Z,31.70
2018-07-05T12:58:28.733Z,31.60
2018-07-05T13:01:09.285Z,31.30
2018-07-05T13:03:49.786Z,31.20
2018-07-05T13:06:30.117Z,31.00
2018-07-05T13:09:10.442Z,31.00
2018-07-05T13:11:50.695Z,31.00
2018-07-05T13:14:31.855Z,30.80
2018-07-05T13:17:12.272Z,30.70
2018-07-05T13:19:52.558Z,30.80
2018-07-05T13:22:32.898Z,30.90
2018-07-05T13:25:13.146Z,31.20
2018-07-05T13:27:53.567Z,31.20
2018-07-05T13:30:33.990Z,31.10
2018-07-05T13:33:14.350Z,30.90
2018-07-05T13:35:54.805Z,30.80
2018-07-05T13:38:35.162Z,30.60
2018-07-05T13:41:15.760Z,30.30
2018-07-05T13:43:56.066Z,30.50
2018-07-05T13:46:36.751Z,30.50
2018-07-05T13:49:17.085Z,30.50
2018-07-05T13:51:57.364Z,30.60
2018-07-05T13:54:37.660Z,30.60
2018-07-05T13:57:18.193Z,30.70
2018-07-05T13:59:58.377Z,30.80
2018-07-05T14:02:38.811Z,30.60
2018-07-05T14:05:19.144Z,30.50
2018-07-05T14:07:59.862Z,30.50
2018-07-05T14:10:41.078Z,30.40
2018-07-05T14:13:21.186Z,30.40
2018-07-05T14:16:01.385Z,30.80
2018-07-05T14:18:41.790Z,30.90
2018-07-05T14:21:22.025Z,30.80
2018-07-05T14:24:02.229Z,30.60
2018-07-05T14:26:42.666Z,30.50
2018-07-05T14:29:23.026Z,30.20
2018-07-05T14:32:03.437Z,29.80
2018-07-05T14:34:43.878Z,29.60
2018-07-05T14:37:24.315Z,29.60
2018-07-05T14:40:04.647Z,29.30
2018-07-05T14:42:44.985Z,29.10
2018-07-05T14:45:25.208Z,28.90
2018-07-05T14:48:05.664Z,28.90
2018-07-05T14:50:46.351Z,28.80
2018-07-05T14:53:26.733Z,29.00
2018-07-05T14:56:07.291Z,29.20
2018-07-05T14:58:47.716Z,29.40
2018-07-05T15:01:28.134Z,29.50
2018-07-05T15:04:08.334Z,29.80
2018-07-05T15:06:48.621Z,29.80
2018-07-05T15:09:29.058Z,29.80
2018-07-05T15:12:09.341Z,29.90
2018-07-05T15:14:49.839Z,29.90
2018-07-05T15:17:30.134Z,30.00
2018-07-05T15:20:10.516Z,30.10
2018-07-05T15:22:50.883Z,30.40
2018-07-05T15:25:30.964Z,30.30
2018-07-05T15:28:11.403Z,30.20
2018-07-05T15:30:51.898Z,30.20
2018-07-05T15:33:32.377Z,30.30
2018-07-05T15:38:47.174Z,30.50
2018-07-05T15:41:27.431Z,30.60
2018-07-05T15:44:07.867Z,30.50
2018-07-05T15:46:48.565Z,30.50
2018-07-05T15:49:28.802Z,30.30
2018-07-05T15:52:09.361Z,30.30
2018-07-05T15:54:49.753Z,30.20
2018-07-05T15:57:30.161Z,30.10
2018-07-05T16:00:10.654Z,30.20
2018-07-05T16:02:51.469Z,30.30
2018-07-05T16:05:32.104Z,30.40
2018-07-05T16:08:12.424Z,30.50
2018-07-05T16:10:52.579Z,30.30
2018-07-05T16:13:32.841Z,30.30
2018-07-05T16:16:13.197Z,30.20
2018-07-05T16:18:53.584Z,30.10
2018-07-05T16:21:34.000Z,30.00
2018-07-05T16:24:14.391Z,30.20
2018-07-05T16:26:54.713Z,30.20
2018-07-05T16:29:34.877Z,30.00
2018-07-05T16:32:15.421Z,29.80
2018-07-05T16:34:56.132Z,29.70
2018-07-05T16:37:36.374Z,29.70
2018-07-05T16:40:16.724Z,29.70
2018-07-05T16:42:57.236Z,29.60
2018-07-05T16:45:37.345Z,29.50
2018-07-05T16:48:17.966Z,29.50
2018-07-05T16:50:58.273Z,29.40
2018-07-05T16:53:38.545Z,29.20
2018-07-05T16:56:18.877Z,29.20
2018-07-05T16:58:59.135Z,29.00
2018-07-05T17:01:39.436Z,29.10
2018-07-05T17:04:19.958Z,29.00
2018-07-05T17:07:00.237Z,29.00
2018-07-05T17:09:40.745Z,28.90
2018-07-05T17:12:21.016Z,28.80
2018-07-05T17:17:35.713Z,28.80
2018-07-05T17:20:15.976Z,28.70
2018-07-05T17:22:56.370Z,28.60
2018-07-05T17:25:37.317Z,28.50
2018-07-05T17:28:17.617Z,28.40
2018-07-05T17:30:57.889Z,28.30
2018-07-05T17:33:38.341Z,28.20
2018-07-05T17:36:18.881Z,28.20
2018-07-05T17:38:59.401Z,28.20
2018-07-05T17:41:40.009Z,28.10
2018-07-05T17:44:20.973Z,27.90
2018-07-05T17:47:01.669Z,27.70
2018-07-05T17:49:42.812Z,27.60
2018-07-05T17:52:23.998Z,27.60
2018-07-05T17:55:04.403Z,27.50
2018-07-05T17:57:44.956Z,27.50
2018-07-05T18:00:25.297Z,27.40
2018-07-05T18:03:05.779Z,27.40
2018-07-05T18:05:46.352Z,27.30
2018-07-05T18:08:26.687Z,27.20
2018-07-05T18:11:07.129Z,27.20
2018-07-05T18:13:47.548Z,27.00
2018-07-05T18:16:27.856Z,27.00
2018-07-05T18:19:08.262Z,26.90
2018-07-05T18:21:48.874Z,26.80
2018-07-05T18:24:29.354Z,26.80
2018-07-05T18:27:09.766Z,26.80
2018-07-05T18:29:50.205Z,26.80
2018-07-05T18:32:30.721Z,26.60
2018-07-05T18:35:11.177Z,26.50
2018-07-05T18:37:51.454Z,26.50
2018-07-05T18:40:31.873Z,26.60
2018-07-05T18:43:12.367Z,26.50
2018-07-05T18:45:52.513Z,26.50
2018-07-05T18:48:32.998Z,26.30
2018-07-05T18:51:13.308Z,25.90
2018-07-05T18:53:53.751Z,25.70
2018-07-05T18:56:34.072Z,25.50
2018-07-05T18:59:14.503Z,25.30
2018-07-05T19:04:29.555Z,25.00
2018-07-05T19:07:10.110Z,24.80
2018-07-05T19:09:50.508Z,24.60
2018-07-05T19:12:31.011Z,24.50
2018-07-05T19:15:11.528Z,24.30
2018-07-05T19:17:51.888Z,24.20
2018-07-05T19:20:32.214Z,24.00
2018-07-05T19:23:12.646Z,23.90
2018-07-05T19:25:52.837Z,23.80
2018-07-05T19:31:07.640Z,23.60
2018-07-05T19:33:48.270Z,23.50
2018-07-05T19:36:28.638Z,23.40
2018-07-05T19:39:08.909Z,23.20
2018-07-05T19:41:49.274Z,23.10
2018-07-05T19:44:29.651Z,23.10
2018-07-05T19:47:10.123Z,22.90
2018-07-05T19:49:50.529Z,22.80
2018-07-05T19:52:31.130Z,22.60
2018-07-05T19:55:11.462Z,22.50
2018-07-05T19:57:51.845Z,22.40
2018-07-05T20:00:32.414Z,22.30
2018-07-05T20:03:12.740Z,22.20
2018-07-05T20:08:27.772Z,22.00
2018-07-05T20:11:08.198Z,21.80
2018-07-05T20:13:48.657Z,21.80
2018-07-05T20:16:28.985Z,21.60
2018-07-05T20:19:09.290Z,21.60
2018-07-05T20:21:50.022Z,21.50
2018-07-05T20:24:30.437Z,21.50
2018-07-05T20:27:10.728Z,21.30
2018-07-05T20:29:51.086Z,21.30
2018-07-05T20:32:31.500Z,21.20
2018-07-05T20:35:11.727Z,21.10
2018-07-05T20:37:52.082Z,21.00
2018-07-05T20:43:06.962Z,20.80
2018-07-05T20:45:47.720Z,20.70
2018-07-05T20:48:28.178Z,20.50
2018-07-05T20:51:08.802Z,20.60
2018-07-05T20:53:49.306Z,20.50
2018-07-05T20:56:30.549Z,20.40
2018-07-05T20:59:11.140Z,20.30
2018-07-05T21:01:51.548Z,20.20
2018-07-05T21:04:31.892Z,20.10
2018-07-05T21:07:12.322Z,20.00
2018-07-05T21:12:27.137Z,19.90
2018-07-05T21:15:07.589Z,19.90
2018-07-05T21:17:48.010Z,19.80
2018-07-05T21:20:28.557Z,19.70
2018-07-05T21:23:08.721Z,19.60
2018-07-05T21:25:48.924Z,19.60
2018-07-05T21:28:29.423Z,19.50
2018-07-05T21:31:09.947Z,19.50
2018-07-05T21:33:50.266Z,19.50
2018-07-05T21:36:30.727Z,19.40
2018-07-05T21:39:11.248Z,19.40
2018-07-05T21:41:51.656Z,19.40
2018-07-05T21:44:32.271Z,19.30
2018-07-05T21:47:12.717Z,19.30
2018-07-05T21:49:52.949Z,19.20
2018-07-05T21:52:33.206Z,19.10
2018-07-05T21:55:13.795Z,19.10
2018-07-05T21:57:54.189Z,19.00
2018-07-05T22:00:34.602Z,18.90
2018-07-05T22:03:15.039Z,18.90
2018-07-05T22:05:55.381Z,18.90
2018-07-05T22:08:35.843Z,18.80
2018-07-05T22:13:50.415Z,18.70
2018-07-05T22:16:30.756Z,18.70
2018-07-05T22:19:16.640Z,18.60
2018-07-05T22:22:02.636Z,18.60
2018-07-05T22:24:48.666Z,18.50
2018-07-05T22:27:34.621Z,18.50
2018-07-05T22:30:20.552Z,18.40
2018-07-05T22:33:00.897Z,18.30
2018-07-05T22:35:41.444Z,18.30
2018-07-05T22:38:21.702Z,18.30
2018-07-05T22:41:02.075Z,18.20
2018-07-05T22:43:42.716Z,18.20
2018-07-05T22:48:57.510Z,18.10
2018-07-05T22:51:37.840Z,18.10
2018-07-05T22:54:18.117Z,18.10
2018-07-05T22:56:58.468Z,18.10
2018-07-05T22:59:39.203Z,18.10
2018-07-05T23:02:19.587Z,18.10
2018-07-05T23:04:59.846Z,18.00
2018-07-05T23:07:40.307Z,18.00
2018-07-05T23:10:20.624Z,18.00
2018-07-05T23:13:00.932Z,18.00
2018-07-05T23:15:41.369Z,18.00
2018-07-05T23:18:21.722Z,18.10
2018-07-05T23:21:02.090Z,18.00
2018-07-05T23:26:16.552Z,17.90
2018-07-05T23:28:57.017Z,17.90
2018-07-05T23:34:11.696Z,17.70
2018-07-05T23:36:52.106Z,17.70
2018-07-05T23:39:32.661Z,17.70
2018-07-05T23:42:12.993Z,17.60
2018-07-05T23:44:53.525Z,17.50
2018-07-05T23:47:34.151Z,17.50
2018-07-05T23:50:14.853Z,17.40
2018-07-05T23:52:55.383Z,17.40
2018-07-05T23:55:35.736Z,17.40
2018-07-05T23:58:16.052Z,17.30
